首页
METAR-TAF:

METAR-TAF

机场 :

赤塔機場

赤塔, 俄罗斯

纬度: 52-05N, 经度: 113-29E, 海拔: 685米

当前天气观测

该预报发布于18分钟前的05:00 UTC
风速12节,风向西
温度 -7°C
湿度 41%
气压 1021 hPa
能见度10公里或以上

METAR: UIAA 140500Z 28006MPS 9999 NSC M07/M18 Q1021 R29/490245 NOSIG RMK QFE707/0943

时间: 14:18 (05:18 UTC)

预报

该预报发布于3小时和18分钟前的02:00 UTC
预报有效从14日的 03点(UTC)到 15日的 03点(UTC)
风速10节,风向西转西北,有时为23节阵风
能见度10公里或以上
散云层高于4000英尺, 积雨云.

TAF: UIAA 140200Z 1403/1503 29005G12MPS 9999 SCT040CB

超过4000个机场的气象观测和天气预报(METAR&TAF报告)。

可查询的气象台以黄色和红色小点在地图上表示。

将鼠标移到小点上方,可查看气象台名称。

然后点击查看天气观测和预报。

如需切换地图:点击带黑十字的绿色按钮放大地图;点击带横线的绿色按钮缩小地图;或者点击绿色箭头查看邻近地区的地图。


METAR-TAF: